Wilton Center, Illinois
Current Conditions -  °F | °C
As of 6:15 AM on Tuesday 27 Jan 2015 (Local Time) from KJOT Reporting Station
Haze Haze  
Wind Chill: 27°   Ceiling: 700
Heat Index: 27°   Visibility: 3mi
Dew Point: 26°   Wind: 0mph
Humidity: 94%   Direction: NA
Pressure: 30.04"   Gusts: NA
Location:  41.4262°N, 87.9655°W
Report Text: KJOT 271215Z AUTO 00000KT 3SM BR OVC007 M03/M03 A3004 RMK AO2 T10261035
Loading
Personal Weather Stations






























Interactive Weather Map New forecast layout! Learn more

10-Day Weather Forecast

Advertisements
Track Severe Weather on mobile